sensor_id;sensor_type;location;lat;lon;timestamp;temperature;humidity
13251;DHT22;6692;50.710;7.180;2022-10-16T00:01:55;15.30;99.90
13251;DHT22;6692;50.710;7.180;2022-10-16T00:03:56;15.30;99.90
13251;DHT22;6692;50.710;7.180;2022-10-16T00:05:58;15.30;99.90
13251;DHT22;6692;50.710;7.180;2022-10-16T00:07:57;15.20;99.90
13251;DHT22;6692;50.710;7.180;2022-10-16T00:09:58;15.20;99.90
13251;DHT22;6692;50.710;7.180;2022-10-16T00:11:59;15.20;99.90
13251;DHT22;6692;50.710;7.180;2022-10-16T00:14:00;15.20;99.90
13251;DHT22;6692;50.710;7.180;2022-10-16T00:16:00;15.20;99.90
13251;DHT22;6692;50.710;7.180;2022-10-16T00:18:02;15.20;99.90
13251;DHT22;6692;50.710;7.180;2022-10-16T00:20:02;15.20;99.90
13251;DHT22;6692;50.710;7.180;2022-10-16T00:22:03;15.20;99.90
13251;DHT22;6692;50.710;7.180;2022-10-16T00:24:05;15.20;99.90
13251;DHT22;6692;50.710;7.180;2022-10-16T00:26:06;15.20;99.90
13251;DHT22;6692;50.710;7.180;2022-10-16T00:28:05;15.20;99.90
13251;DHT22;6692;50.710;7.180;2022-10-16T00:30:07;15.20;99.90
13251;DHT22;6692;50.710;7.180;2022-10-16T00:32:08;15.10;99.90
13251;DHT22;6692;50.710;7.180;2022-10-16T00:34:10;15.10;99.90
13251;DHT22;6692;50.710;7.180;2022-10-16T00:36:12;15.10;99.90
13251;DHT22;6692;50.710;7.180;2022-10-16T00:38:12;15.00;99.90
13251;DHT22;6692;50.710;7.180;2022-10-16T00:40:13;15.00;99.90
13251;DHT22;6692;50.710;7.180;2022-10-16T00:42:15;15.00;99.90
13251;DHT22;6692;50.710;7.180;2022-10-16T00:46:32;15.00;99.90
13251;DHT22;6692;50.710;7.180;2022-10-16T00:48:30;15.00;99.90
13251;DHT22;6692;50.710;7.180;2022-10-16T00:50:32;15.00;99.90
13251;DHT22;6692;50.710;7.180;2022-10-16T00:52:31;15.00;99.90
13251;DHT22;6692;50.710;7.180;2022-10-16T00:54:32;14.90;99.90
13251;DHT22;6692;50.710;7.180;2022-10-16T00:56:32;15.00;99.90
13251;DHT22;6692;50.710;7.180;2022-10-16T00:58:33;14.90;99.90
13251;DHT22;6692;50.710;7.180;2022-10-16T01:00:34;14.90;99.90
13251;DHT22;6692;50.710;7.180;2022-10-16T01:02:34;14.90;99.90
13251;DHT22;6692;50.710;7.180;2022-10-16T01:04:36;14.90;99.90
13251;DHT22;6692;50.710;7.180;2022-10-16T01:06:46;15.00;99.90
13251;DHT22;6692;50.710;7.180;2022-10-16T01:08:49;14.90;99.90
13251;DHT22;6692;50.710;7.180;2022-10-16T01:10:54;14.90;99.90
13251;DHT22;6692;50.710;7.180;2022-10-16T01:13:09;14.90;99.90
13251;DHT22;6692;50.710;7.180;2022-10-16T01:15:10;14.90;99.90
13251;DHT22;6692;50.710;7.180;2022-10-16T01:17:12;15.00;99.90
13251;DHT22;6692;50.710;7.180;2022-10-16T01:19:14;15.00;99.90
13251;DHT22;6692;50.710;7.180;2022-10-16T01:21:17;15.00;99.90
13251;DHT22;6692;50.710;7.180;2022-10-16T01:23:35;15.00;99.90
13251;DHT22;6692;50.710;7.180;2022-10-16T01:25:53;15.00;99.90
13251;DHT22;6692;50.710;7.180;2022-10-16T01:27:52;15.00;99.90
13251;DHT22;6692;50.710;7.180;2022-10-16T01:29:59;15.00;99.90
13251;DHT22;6692;50.710;7.180;2022-10-16T01:31:59;14.90;99.90
13251;DHT22;6692;50.710;7.180;2022-10-16T01:34:00;14.90;99.90
13251;DHT22;6692;50.710;7.180;2022-10-16T01:36:02;14.90;99.90
13251;DHT22;6692;50.710;7.180;2022-10-16T01:38:06;15.00;99.90
13251;DHT22;6692;50.710;7.180;2022-10-16T01:40:07;15.00;99.90
13251;DHT22;6692;50.710;7.180;2022-10-16T01:42:09;15.00;99.90
13251;DHT22;6692;50.710;7.180;2022-10-16T01:44:11;14.90;99.90
13251;DHT22;6692;50.710;7.180;2022-10-16T01:46:11;14.90;99.90
13251;DHT22;6692;50.710;7.180;2022-10-16T01:48:12;14.90;99.90
13251;DHT22;6692;50.710;7.180;2022-10-16T01:50:12;14.90;99.90
13251;DHT22;6692;50.710;7.180;2022-10-16T01:52:14;14.90;99.90
13251;DHT22;6692;50.710;7.180;2022-10-16T01:54:14;14.80;99.90
13251;DHT22;6692;50.710;7.180;2022-10-16T01:56:14;14.80;99.90
13251;DHT22;6692;50.710;7.180;2022-10-16T01:58:15;14.70;99.90
13251;DHT22;6692;50.710;7.180;2022-10-16T02:00:16;14.80;99.90
13251;DHT22;6692;50.710;7.180;2022-10-16T02:02:17;14.80;99.90
13251;DHT22;6692;50.710;7.180;2022-10-16T02:04:21;14.80;99.90
13251;DHT22;6692;50.710;7.180;2022-10-16T02:06:20;14.80;99.90
13251;DHT22;6692;50.710;7.180;2022-10-16T02:08:22;14.90;99.90
13251;DHT22;6692;50.710;7.180;2022-10-16T02:10:23;14.80;99.90
13251;DHT22;6692;50.710;7.180;2022-10-16T02:12:25;14.90;99.90
13251;DHT22;6692;50.710;7.180;2022-10-16T02:14:25;14.90;99.90
13251;DHT22;6692;50.710;7.180;2022-10-16T02:16:34;14.90;99.90
13251;DHT22;6692;50.710;7.180;2022-10-16T02:18:34;15.00;99.90
13251;DHT22;6692;50.710;7.180;2022-10-16T02:20:58;15.00;99.90
13251;DHT22;6692;50.710;7.180;2022-10-16T02:22:57;15.00;99.90
13251;DHT22;6692;50.710;7.180;2022-10-16T02:24:59;15.00;99.90
13251;DHT22;6692;50.710;7.180;2022-10-16T02:27:29;15.10;99.90
13251;DHT22;6692;50.710;7.180;2022-10-16T02:29:27;15.10;99.90
13251;DHT22;6692;50.710;7.180;2022-10-16T02:31:28;15.10;99.90
13251;DHT22;6692;50.710;7.180;2022-10-16T02:33:29;15.10;99.90
13251;DHT22;6692;50.710;7.180;2022-10-16T02:35:29;15.20;99.90
13251;DHT22;6692;50.710;7.180;2022-10-16T02:37:30;15.20;99.90
13251;DHT22;6692;50.710;7.180;2022-10-16T02:39:31;15.20;99.90
13251;DHT22;6692;50.710;7.180;2022-10-16T02:41:31;15.30;99.90
13251;DHT22;6692;50.710;7.180;2022-10-16T02:43:32;15.30;99.90
13251;DHT22;6692;50.710;7.180;2022-10-16T02:45:33;15.40;99.90
13251;DHT22;6692;50.710;7.180;2022-10-16T02:47:33;15.40;99.90
13251;DHT22;6692;50.710;7.180;2022-10-16T02:49:34;15.40;99.90
13251;DHT22;6692;50.710;7.180;2022-10-16T02:51:35;15.40;99.90
13251;DHT22;6692;50.710;7.180;2022-10-16T02:53:36;15.40;99.90
13251;DHT22;6692;50.710;7.180;2022-10-16T02:55:37;15.40;99.90
13251;DHT22;6692;50.710;7.180;2022-10-16T02:57:38;15.30;99.90
13251;DHT22;6692;50.710;7.180;2022-10-16T02:59:39;15.30;99.90
13251;DHT22;6692;50.710;7.180;2022-10-16T03:01:39;15.30;99.90
13251;DHT22;6692;50.710;7.180;2022-10-16T03:03:40;15.20;99.90
13251;DHT22;6692;50.710;7.180;2022-10-16T03:05:42;15.20;99.90
13251;DHT22;6692;50.710;7.180;2022-10-16T03:07:41;15.10;99.90
13251;DHT22;6692;50.710;7.180;2022-10-16T03:09:43;15.10;99.90
13251;DHT22;6692;50.710;7.180;2022-10-16T03:11:44;15.10;99.90
13251;DHT22;6692;50.710;7.180;2022-10-16T03:13:45;15.10;99.90
13251;DHT22;6692;50.710;7.180;2022-10-16T03:15:46;15.10;99.90
13251;DHT22;6692;50.710;7.180;2022-10-16T03:17:47;15.10;99.90
13251;DHT22;6692;50.710;7.180;2022-10-16T03:19:48;15.10;99.90
13251;DHT22;6692;50.710;7.180;2022-10-16T03:21:49;15.00;99.90
13251;DHT22;6692;50.710;7.180;2022-10-16T03:23:50;15.10;99.90
13251;DHT22;6692;50.710;7.180;2022-10-16T03:25:51;15.10;99.90
13251;DHT22;6692;50.710;7.180;2022-10-16T03:27:52;15.10;99.90
13251;DHT22;6692;50.710;7.180;2022-10-16T03:29:53;15.10;99.90
13251;DHT22;6692;50.710;7.180;2022-10-16T03:31:54;15.10;99.90
13251;DHT22;6692;50.710;7.180;2022-10-16T03:33:55;15.10;99.90
13251;DHT22;6692;50.710;7.180;2022-10-16T03:35:57;15.10;99.90
13251;DHT22;6692;50.710;7.180;2022-10-16T03:37:57;15.10;99.90
13251;DHT22;6692;50.710;7.180;2022-10-16T03:39:58;15.10;99.90
13251;DHT22;6692;50.710;7.180;2022-10-16T03:41:59;15.10;99.90
13251;DHT22;6692;50.710;7.180;2022-10-16T03:44:00;15.20;99.90
13251;DHT22;6692;50.710;7.180;2022-10-16T03:46:01;15.20;99.90
13251;DHT22;6692;50.710;7.180;2022-10-16T03:48:02;15.20;99.90
13251;DHT22;6692;50.710;7.180;2022-10-16T03:50:04;15.20;99.90
13251;DHT22;6692;50.710;7.180;2022-10-16T03:52:04;15.20;99.90
13251;DHT22;6692;50.710;7.180;2022-10-16T03:54:05;15.30;99.90
13251;DHT22;6692;50.710;7.180;2022-10-16T03:56:06;15.30;99.90
13251;DHT22;6692;50.710;7.180;2022-10-16T03:58:06;15.30;99.90
13251;DHT22;6692;50.710;7.180;2022-10-16T04:00:08;15.30;99.90
13251;DHT22;6692;50.710;7.180;2022-10-16T04:02:09;15.40;99.90
13251;DHT22;6692;50.710;7.180;2022-10-16T04:04:10;15.40;99.90
13251;DHT22;6692;50.710;7.180;2022-10-16T04:06:12;15.40;99.90
13251;DHT22;6692;50.710;7.180;2022-10-16T04:08:13;15.40;99.90
13251;DHT22;6692;50.710;7.180;2022-10-16T04:10:14;15.40;99.90
13251;DHT22;6692;50.710;7.180;2022-10-16T04:12:15;15.40;99.90
13251;DHT22;6692;50.710;7.180;2022-10-16T04:14:17;15.50;99.90
13251;DHT22;6692;50.710;7.180;2022-10-16T04:16:17;15.40;99.90
13251;DHT22;6692;50.710;7.180;2022-10-16T04:18:19;15.50;99.90
13251;DHT22;6692;50.710;7.180;2022-10-16T04:20:20;15.50;99.90
13251;DHT22;6692;50.710;7.180;2022-10-16T04:22:20;15.50;99.90
13251;DHT22;6692;50.710;7.180;2022-10-16T04:24:21;15.50;99.90
13251;DHT22;6692;50.710;7.180;2022-10-16T04:26:22;15.60;99.90
13251;DHT22;6692;50.710;7.180;2022-10-16T04:28:23;15.60;99.90
13251;DHT22;6692;50.710;7.180;2022-10-16T04:30:24;15.60;99.90
13251;DHT22;6692;50.710;7.180;2022-10-16T04:32:25;15.60;99.90
13251;DHT22;6692;50.710;7.180;2022-10-16T04:34:25;15.60;99.90
13251;DHT22;6692;50.710;7.180;2022-10-16T04:36:26;15.60;99.90
13251;DHT22;6692;50.710;7.180;2022-10-16T04:38:27;15.60;99.90
13251;DHT22;6692;50.710;7.180;2022-10-16T04:40:28;15.70;99.90
13251;DHT22;6692;50.710;7.180;2022-10-16T04:42:28;15.70;99.90
13251;DHT22;6692;50.710;7.180;2022-10-16T04:44:29;15.70;99.90
13251;DHT22;6692;50.710;7.180;2022-10-16T04:46:30;15.70;99.90
13251;DHT22;6692;50.710;7.180;2022-10-16T04:48:31;15.70;99.90
13251;DHT22;6692;50.710;7.180;2022-10-16T04:50:31;15.70;99.90
13251;DHT22;6692;50.710;7.180;2022-10-16T04:52:32;15.70;99.90
13251;DHT22;6692;50.710;7.180;2022-10-16T04:54:32;15.70;99.90
13251;DHT22;6692;50.710;7.180;2022-10-16T04:56:34;15.70;99.90
13251;DHT22;6692;50.710;7.180;2022-10-16T04:58:34;15.70;99.90
13251;DHT22;6692;50.710;7.180;2022-10-16T05:00:36;15.70;99.90
13251;DHT22;6692;50.710;7.180;2022-10-16T05:02:36;15.70;99.90
13251;DHT22;6692;50.710;7.180;2022-10-16T05:04:37;15.70;99.90
13251;DHT22;6692;50.710;7.180;2022-10-16T05:06:39;15.70;99.90
13251;DHT22;6692;50.710;7.180;2022-10-16T05:08:39;15.70;99.90
13251;DHT22;6692;50.710;7.180;2022-10-16T05:10:41;15.70;99.90
13251;DHT22;6692;50.710;7.180;2022-10-16T05:12:41;15.80;99.90
13251;DHT22;6692;50.710;7.180;2022-10-16T05:14:42;15.70;99.90
13251;DHT22;6692;50.710;7.180;2022-10-16T05:16:43;15.70;99.90
13251;DHT22;6692;50.710;7.180;2022-10-16T05:18:44;15.70;99.90
13251;DHT22;6692;50.710;7.180;2022-10-16T05:20:45;15.70;99.90
13251;DHT22;6692;50.710;7.180;2022-10-16T05:22:46;15.80;99.90
13251;DHT22;6692;50.710;7.180;2022-10-16T05:24:47;15.80;99.90
13251;DHT22;6692;50.710;7.180;2022-10-16T05:26:49;15.80;99.90
13251;DHT22;6692;50.710;7.180;2022-10-16T05:28:50;15.80;99.90
13251;DHT22;6692;50.710;7.180;2022-10-16T05:30:50;15.80;99.90
13251;DHT22;6692;50.710;7.180;2022-10-16T05:32:51;15.80;99.90
13251;DHT22;6692;50.710;7.180;2022-10-16T05:34:51;15.80;99.90
13251;DHT22;6692;50.710;7.180;2022-10-16T05:36:52;15.80;99.90
13251;DHT22;6692;50.710;7.180;2022-10-16T05:38:53;15.80;99.90
13251;DHT22;6692;50.710;7.180;2022-10-16T05:40:53;15.80;99.90
13251;DHT22;6692;50.710;7.180;2022-10-16T05:42:55;15.80;99.90
13251;DHT22;6692;50.710;7.180;2022-10-16T05:44:55;15.80;99.90
13251;DHT22;6692;50.710;7.180;2022-10-16T05:46:57;15.80;99.90
13251;DHT22;6692;50.710;7.180;2022-10-16T05:48:58;15.80;99.90
13251;DHT22;6692;50.710;7.180;2022-10-16T05:51:02;15.80;99.90
13251;DHT22;6692;50.710;7.180;2022-10-16T05:53:02;15.80;99.90
13251;DHT22;6692;50.710;7.180;2022-10-16T05:55:04;15.80;99.90
13251;DHT22;6692;50.710;7.180;2022-10-16T05:57:05;15.80;99.90
13251;DHT22;6692;50.710;7.180;2022-10-16T05:59:06;15.80;99.90
13251;DHT22;6692;50.710;7.180;2022-10-16T06:01:11;15.80;99.90
13251;DHT22;6692;50.710;7.180;2022-10-16T06:03:10;15.80;99.90
13251;DHT22;6692;50.710;7.180;2022-10-16T06:05:11;15.90;99.90
13251;DHT22;6692;50.710;7.180;2022-10-16T06:07:12;15.90;99.90
13251;DHT22;6692;50.710;7.180;2022-10-16T06:09:12;15.90;99.90
13251;DHT22;6692;50.710;7.180;2022-10-16T06:11:15;15.90;99.90
13251;DHT22;6692;50.710;7.180;2022-10-16T06:13:15;15.90;99.90
13251;DHT22;6692;50.710;7.180;2022-10-16T06:15:15;16.00;99.90
13251;DHT22;6692;50.710;7.180;2022-10-16T06:17:16;16.00;99.90
13251;DHT22;6692;50.710;7.180;2022-10-16T06:19:17;16.00;99.90
13251;DHT22;6692;50.710;7.180;2022-10-16T06:21:18;16.00;99.90
13251;DHT22;6692;50.710;7.180;2022-10-16T06:23:18;16.00;99.90
13251;DHT22;6692;50.710;7.180;2022-10-16T06:25:19;16.00;99.90
13251;DHT22;6692;50.710;7.180;2022-10-16T06:27:19;16.00;99.90
13251;DHT22;6692;50.710;7.180;2022-10-16T06:29:20;16.00;99.90
13251;DHT22;6692;50.710;7.180;2022-10-16T06:31:22;16.00;99.90
13251;DHT22;6692;50.710;7.180;2022-10-16T06:33:22;16.00;99.90
13251;DHT22;6692;50.710;7.180;2022-10-16T06:35:23;16.00;99.90
13251;DHT22;6692;50.710;7.180;2022-10-16T06:37:24;16.10;99.90
13251;DHT22;6692;50.710;7.180;2022-10-16T06:39:25;16.10;99.90
13251;DHT22;6692;50.710;7.180;2022-10-16T06:41:26;16.10;99.90
13251;DHT22;6692;50.710;7.180;2022-10-16T06:43:28;16.10;99.90
13251;DHT22;6692;50.710;7.180;2022-10-16T06:45:27;16.10;99.90
13251;DHT22;6692;50.710;7.180;2022-10-16T06:47:28;16.10;99.90
13251;DHT22;6692;50.710;7.180;2022-10-16T06:49:28;16.10;99.90
13251;DHT22;6692;50.710;7.180;2022-10-16T06:51:29;16.10;99.90
13251;DHT22;6692;50.710;7.180;2022-10-16T06:53:31;16.20;99.90
13251;DHT22;6692;50.710;7.180;2022-10-16T06:55:30;16.20;99.90
13251;DHT22;6692;50.710;7.180;2022-10-16T06:57:31;16.20;99.90
13251;DHT22;6692;50.710;7.180;2022-10-16T06:59:32;16.30;99.90
13251;DHT22;6692;50.710;7.180;2022-10-16T07:01:32;16.30;99.90
13251;DHT22;6692;50.710;7.180;2022-10-16T07:03:33;16.30;99.90
13251;DHT22;6692;50.710;7.180;2022-10-16T07:05:39;16.40;99.90
13251;DHT22;6692;50.710;7.180;2022-10-16T07:07:39;16.40;99.90
13251;DHT22;6692;50.710;7.180;2022-10-16T07:09:40;16.40;99.90
13251;DHT22;6692;50.710;7.180;2022-10-16T07:11:40;16.50;99.90
13251;DHT22;6692;50.710;7.180;2022-10-16T07:13:42;16.50;99.90
13251;DHT22;6692;50.710;7.180;2022-10-16T07:15:42;16.40;99.90
13251;DHT22;6692;50.710;7.180;2022-10-16T07:17:42;16.30;99.90
13251;DHT22;6692;50.710;7.180;2022-10-16T07:19:44;16.30;99.90
13251;DHT22;6692;50.710;7.180;2022-10-16T07:21:45;16.30;99.90
13251;DHT22;6692;50.710;7.180;2022-10-16T07:23:51;16.40;99.90
13251;DHT22;6692;50.710;7.180;2022-10-16T07:25:53;16.50;99.90
13251;DHT22;6692;50.710;7.180;2022-10-16T07:27:54;16.60;99.90
13251;DHT22;6692;50.710;7.180;2022-10-16T07:29:55;16.60;99.90
13251;DHT22;6692;50.710;7.180;2022-10-16T07:31:55;16.70;99.90
13251;DHT22;6692;50.710;7.180;2022-10-16T07:33:57;16.80;99.90
13251;DHT22;6692;50.710;7.180;2022-10-16T07:35:58;16.80;99.90
13251;DHT22;6692;50.710;7.180;2022-10-16T07:37:59;16.90;99.90
13251;DHT22;6692;50.710;7.180;2022-10-16T07:40:00;16.90;99.90
13251;DHT22;6692;50.710;7.180;2022-10-16T07:42:00;16.90;99.90
13251;DHT22;6692;50.710;7.180;2022-10-16T07:44:01;16.90;99.90
13251;DHT22;6692;50.710;7.180;2022-10-16T07:46:02;16.80;99.90
13251;DHT22;6692;50.710;7.180;2022-10-16T07:48:03;16.80;99.90
13251;DHT22;6692;50.710;7.180;2022-10-16T07:50:04;16.80;99.90
13251;DHT22;6692;50.710;7.180;2022-10-16T07:52:05;16.80;99.90
13251;DHT22;6692;50.710;7.180;2022-10-16T07:54:07;16.80;99.90
13251;DHT22;6692;50.710;7.180;2022-10-16T07:56:07;16.90;99.90
13251;DHT22;6692;50.710;7.180;2022-10-16T07:58:08;16.80;99.90
13251;DHT22;6692;50.710;7.180;2022-10-16T08:00:09;16.90;99.90
13251;DHT22;6692;50.710;7.180;2022-10-16T08:02:10;16.90;99.90
13251;DHT22;6692;50.710;7.180;2022-10-16T08:04:11;17.00;99.90
13251;DHT22;6692;50.710;7.180;2022-10-16T08:06:12;17.10;99.90
13251;DHT22;6692;50.710;7.180;2022-10-16T08:08:13;17.00;99.90
13251;DHT22;6692;50.710;7.180;2022-10-16T08:10:16;17.10;99.90
13251;DHT22;6692;50.710;7.180;2022-10-16T08:12:17;17.00;99.90
13251;DHT22;6692;50.710;7.180;2022-10-16T08:14:18;17.00;99.90
13251;DHT22;6692;50.710;7.180;2022-10-16T08:16:18;17.00;99.90
13251;DHT22;6692;50.710;7.180;2022-10-16T08:18:20;16.90;99.90
13251;DHT22;6692;50.710;7.180;2022-10-16T08:20:20;16.90;99.90
13251;DHT22;6692;50.710;7.180;2022-10-16T08:22:21;16.90;99.90
13251;DHT22;6692;50.710;7.180;2022-10-16T08:24:22;16.80;99.90
13251;DHT22;6692;50.710;7.180;2022-10-16T08:26:23;16.80;99.90
13251;DHT22;6692;50.710;7.180;2022-10-16T08:28:23;16.80;99.90
13251;DHT22;6692;50.710;7.180;2022-10-16T08:30:24;16.70;99.90
13251;DHT22;6692;50.710;7.180;2022-10-16T08:32:25;16.60;99.90
13251;DHT22;6692;50.710;7.180;2022-10-16T08:34:26;16.70;99.90
13251;DHT22;6692;50.710;7.180;2022-10-16T08:36:27;16.60;99.90
13251;DHT22;6692;50.710;7.180;2022-10-16T08:38:28;16.80;99.90
13251;DHT22;6692;50.710;7.180;2022-10-16T08:40:29;16.80;99.90
13251;DHT22;6692;50.710;7.180;2022-10-16T08:44:57;16.90;99.90
13251;DHT22;6692;50.710;7.180;2022-10-16T08:47:02;17.00;99.90
13251;DHT22;6692;50.710;7.180;2022-10-16T08:48:58;17.10;99.90
13251;DHT22;6692;50.710;7.180;2022-10-16T08:51:00;17.20;99.90
13251;DHT22;6692;50.710;7.180;2022-10-16T08:53:00;17.30;99.90
13251;DHT22;6692;50.710;7.180;2022-10-16T08:55:01;17.70;99.90
13251;DHT22;6692;50.710;7.180;2022-10-16T08:57:24;17.70;99.90
13251;DHT22;6692;50.710;7.180;2022-10-16T08:59:23;17.90;99.90
13251;DHT22;6692;50.710;7.180;2022-10-16T09:01:25;18.10;99.90
13251;DHT22;6692;50.710;7.180;2022-10-16T09:06:03;18.40;99.90
13251;DHT22;6692;50.710;7.180;2022-10-16T09:08:18;18.60;99.90
13251;DHT22;6692;50.710;7.180;2022-10-16T09:10:37;18.60;99.90
13251;DHT22;6692;50.710;7.180;2022-10-16T09:12:40;18.80;99.90
13251;DHT22;6692;50.710;7.180;2022-10-16T09:15:00;18.80;99.90
13251;DHT22;6692;50.710;7.180;2022-10-16T09:17:00;18.80;99.90
13251;DHT22;6692;50.710;7.180;2022-10-16T09:19:04;18.80;99.90
13251;DHT22;6692;50.710;7.180;2022-10-16T09:21:13;18.80;99.90
13251;DHT22;6692;50.710;7.180;2022-10-16T09:23:14;18.80;99.90
13251;DHT22;6692;50.710;7.180;2022-10-16T09:25:15;18.70;99.90
13251;DHT22;6692;50.710;7.180;2022-10-16T09:27:14;18.70;99.90
13251;DHT22;6692;50.710;7.180;2022-10-16T09:29:16;18.60;99.90
13251;DHT22;6692;50.710;7.180;2022-10-16T09:31:19;18.40;99.90
13251;DHT22;6692;50.710;7.180;2022-10-16T09:33:19;18.30;99.90
13251;DHT22;6692;50.710;7.180;2022-10-16T09:35:20;18.30;99.90
13251;DHT22;6692;50.710;7.180;2022-10-16T09:37:21;18.20;99.90
13251;DHT22;6692;50.710;7.180;2022-10-16T09:39:21;18.20;99.90
13251;DHT22;6692;50.710;7.180;2022-10-16T09:41:22;18.00;99.90
13251;DHT22;6692;50.710;7.180;2022-10-16T09:43:26;18.00;99.90
13251;DHT22;6692;50.710;7.180;2022-10-16T09:45:26;17.90;99.90
13251;DHT22;6692;50.710;7.180;2022-10-16T09:47:27;17.80;99.90
13251;DHT22;6692;50.710;7.180;2022-10-16T09:49:28;17.70;99.90
13251;DHT22;6692;50.710;7.180;2022-10-16T09:51:31;17.70;99.90
13251;DHT22;6692;50.710;7.180;2022-10-16T09:53:39;17.70;99.90
13251;DHT22;6692;50.710;7.180;2022-10-16T09:55:48;17.70;99.90
13251;DHT22;6692;50.710;7.180;2022-10-16T09:57:51;17.60;99.90
13251;DHT22;6692;50.710;7.180;2022-10-16T09:59:52;17.60;99.90
13251;DHT22;6692;50.710;7.180;2022-10-16T10:01:53;17.70;99.90
13251;DHT22;6692;50.710;7.180;2022-10-16T10:03:55;17.70;99.90
13251;DHT22;6692;50.710;7.180;2022-10-16T10:05:53;17.70;99.90
13251;DHT22;6692;50.710;7.180;2022-10-16T10:07:56;17.70;99.90
13251;DHT22;6692;50.710;7.180;2022-10-16T10:09:56;17.70;99.90
13251;DHT22;6692;50.710;7.180;2022-10-16T10:11:57;17.70;99.90
13251;DHT22;6692;50.710;7.180;2022-10-16T10:14:21;17.70;99.90
13251;DHT22;6692;50.710;7.180;2022-10-16T10:16:23;17.80;99.90
13251;DHT22;6692;50.710;7.180;2022-10-16T10:18:25;17.90;99.90
13251;DHT22;6692;50.710;7.180;2022-10-16T10:20:30;17.90;99.90
13251;DHT22;6692;50.710;7.180;2022-10-16T10:24:38;18.00;99.90
13251;DHT22;6692;50.710;7.180;2022-10-16T10:26:38;18.00;99.90
13251;DHT22;6692;50.710;7.180;2022-10-16T10:28:49;18.10;99.90
13251;DHT22;6692;50.710;7.180;2022-10-16T10:31:00;18.10;99.90
13251;DHT22;6692;50.710;7.180;2022-10-16T10:33:20;18.20;99.90
13251;DHT22;6692;50.710;7.180;2022-10-16T10:35:22;18.20;99.90
13251;DHT22;6692;50.710;7.180;2022-10-16T10:37:29;18.40;99.90
13251;DHT22;6692;50.710;7.180;2022-10-16T10:39:30;18.40;99.90
13251;DHT22;6692;50.710;7.180;2022-10-16T10:42:15;18.60;99.90
13251;DHT22;6692;50.710;7.180;2022-10-16T10:44:25;18.50;99.90
13251;DHT22;6692;50.710;7.180;2022-10-16T10:46:34;18.60;99.90
13251;DHT22;6692;50.710;7.180;2022-10-16T10:50:45;18.70;99.90
13251;DHT22;6692;50.710;7.180;2022-10-16T10:52:59;18.70;99.90
13251;DHT22;6692;50.710;7.180;2022-10-16T10:55:17;18.70;99.90
13251;DHT22;6692;50.710;7.180;2022-10-16T10:57:33;18.60;99.90
13251;DHT22;6692;50.710;7.180;2022-10-16T11:02:34;18.70;99.90
13251;DHT22;6692;50.710;7.180;2022-10-16T11:04:27;18.70;99.90
13251;DHT22;6692;50.710;7.180;2022-10-16T11:06:26;18.70;99.90
13251;DHT22;6692;50.710;7.180;2022-10-16T11:08:36;18.80;99.90
13251;DHT22;6692;50.710;7.180;2022-10-16T11:10:47;18.80;99.90
13251;DHT22;6692;50.710;7.180;2022-10-16T11:12:47;18.90;99.90
13251;DHT22;6692;50.710;7.180;2022-10-16T11:14:56;18.90;99.90
13251;DHT22;6692;50.710;7.180;2022-10-16T11:17:01;19.00;99.90
13251;DHT22;6692;50.710;7.180;2022-10-16T11:19:04;19.10;99.90
13251;DHT22;6692;50.710;7.180;2022-10-16T11:21:04;19.20;99.90
13251;DHT22;6692;50.710;7.180;2022-10-16T11:23:07;19.30;99.90
13251;DHT22;6692;50.710;7.180;2022-10-16T11:25:16;19.30;99.90
13251;DHT22;6692;50.710;7.180;2022-10-16T11:27:17;19.40;99.90
13251;DHT22;6692;50.710;7.180;2022-10-16T11:29:19;19.50;99.90
13251;DHT22;6692;50.710;7.180;2022-10-16T11:31:35;19.70;99.90
13251;DHT22;6692;50.710;7.180;2022-10-16T11:33:46;19.60;99.90
13251;DHT22;6692;50.710;7.180;2022-10-16T11:35:51;19.70;99.90
13251;DHT22;6692;50.710;7.180;2022-10-16T11:37:49;19.70;99.90
13251;DHT22;6692;50.710;7.180;2022-10-16T11:39:50;19.70;99.90
13251;DHT22;6692;50.710;7.180;2022-10-16T11:41:53;19.60;99.90
13251;DHT22;6692;50.710;7.180;2022-10-16T11:46:17;19.60;99.90
13251;DHT22;6692;50.710;7.180;2022-10-16T11:48:26;19.60;99.90
13251;DHT22;6692;50.710;7.180;2022-10-16T11:50:43;19.70;99.90
13251;DHT22;6692;50.710;7.180;2022-10-16T11:52:49;19.80;99.90
13251;DHT22;6692;50.710;7.180;2022-10-16T11:54:54;20.20;99.90
13251;DHT22;6692;50.710;7.180;2022-10-16T11:56:57;20.40;99.90
13251;DHT22;6692;50.710;7.180;2022-10-16T11:58:58;20.50;99.90
13251;DHT22;6692;50.710;7.180;2022-10-16T12:01:13;20.60;99.90
13251;DHT22;6692;50.710;7.180;2022-10-16T12:03:16;20.60;99.90
13251;DHT22;6692;50.710;7.180;2022-10-16T12:05:22;20.70;99.90
13251;DHT22;6692;50.710;7.180;2022-10-16T12:07:22;20.70;99.90
13251;DHT22;6692;50.710;7.180;2022-10-16T12:09:25;20.80;99.90
13251;DHT22;6692;50.710;7.180;2022-10-16T12:11:41;20.80;99.90
13251;DHT22;6692;50.710;7.180;2022-10-16T12:13:42;20.80;99.90
13251;DHT22;6692;50.710;7.180;2022-10-16T12:15:42;20.70;99.90
13251;DHT22;6692;50.710;7.180;2022-10-16T12:17:43;20.70;99.90
13251;DHT22;6692;50.710;7.180;2022-10-16T12:19:43;20.70;99.90
13251;DHT22;6692;50.710;7.180;2022-10-16T12:21:44;20.80;99.90
13251;DHT22;6692;50.710;7.180;2022-10-16T12:23:47;21.00;99.90
13251;DHT22;6692;50.710;7.180;2022-10-16T12:25:53;21.10;99.90
13251;DHT22;6692;50.710;7.180;2022-10-16T12:27:55;21.10;99.90
13251;DHT22;6692;50.710;7.180;2022-10-16T12:29:58;21.20;99.90
13251;DHT22;6692;50.710;7.180;2022-10-16T12:31:57;21.20;99.90
13251;DHT22;6692;50.710;7.180;2022-10-16T12:33:59;21.20;99.90
13251;DHT22;6692;50.710;7.180;2022-10-16T12:36:00;21.30;99.90
13251;DHT22;6692;50.710;7.180;2022-10-16T12:38:07;21.40;99.90
13251;DHT22;6692;50.710;7.180;2022-10-16T12:40:11;21.40;99.90
13251;DHT22;6692;50.710;7.180;2022-10-16T12:42:20;21.40;99.90
13251;DHT22;6692;50.710;7.180;2022-10-16T12:44:23;21.50;99.90
13251;DHT22;6692;50.710;7.180;2022-10-16T12:46:44;21.50;99.90
13251;DHT22;6692;50.710;7.180;2022-10-16T12:48:44;21.70;99.90
13251;DHT22;6692;50.710;7.180;2022-10-16T12:50:45;21.70;99.90
13251;DHT22;6692;50.710;7.180;2022-10-16T12:52:46;21.80;99.90
13251;DHT22;6692;50.710;7.180;2022-10-16T12:54:46;21.80;99.90
13251;DHT22;6692;50.710;7.180;2022-10-16T12:59:16;21.60;99.90
13251;DHT22;6692;50.710;7.180;2022-10-16T13:03:34;21.50;99.90
13251;DHT22;6692;50.710;7.180;2022-10-16T13:05:41;21.40;99.90
13251;DHT22;6692;50.710;7.180;2022-10-16T13:07:56;21.60;99.90
13251;DHT22;6692;50.710;7.180;2022-10-16T13:10:15;21.50;99.90
13251;DHT22;6692;50.710;7.180;2022-10-16T13:14:59;21.70;99.90
13251;DHT22;6692;50.710;7.180;2022-10-16T13:17:28;21.80;99.90
13251;DHT22;6692;50.710;7.180;2022-10-16T13:19:30;21.70;99.90
13251;DHT22;6692;50.710;7.180;2022-10-16T13:21:33;21.60;99.90
13251;DHT22;6692;50.710;7.180;2022-10-16T13:28:32;21.00;99.90
13251;DHT22;6692;50.710;7.180;2022-10-16T13:30:51;21.00;99.90
13251;DHT22;6692;50.710;7.180;2022-10-16T13:33:04;21.00;99.90
13251;DHT22;6692;50.710;7.180;2022-10-16T13:35:18;21.00;99.90
13251;DHT22;6692;50.710;7.180;2022-10-16T13:37:15;21.00;99.90